Highview, Kentucky
Current Conditions -  °F | °C
As of 11:56 PM on Friday 28 Nov 2014 (Local Time) from KSDF Reporting Station
Broken Clouds Broken Clouds  
Wind Chill: 29°   Ceiling: 25000
Heat Index: 35°   Visibility: 10mi
Dew Point: 22°   Wind: 7mph
Humidity: 59%   Direction: 130°SE
Pressure: 30.06"   Gusts: NA
Location:  38.14°N, 85.64°W
Report Text: KSDF 290456Z 13006KT 10SM FEW160 BKN250 02/M06 A3006 RMK AO2 SLP184 T00171056 400441039
Loading
Personal Weather Stations






























Interactive Weather Map New forecast layout! Learn more

10-Day Weather Forecast

Advertisements
Track Severe Weather on mobile